sensor_id;sensor_type;location;lat;lon;timestamp;pressure;altitude;pressure_sealevel;temperature;humidity
12471;BME280;36499;46.484;13.832;2023-06-19T00:00:45;93180.53;;;16.07;80.88
12471;BME280;36499;46.484;13.832;2023-06-19T00:03:12;93175.09;;;16.14;81.04
12471;BME280;36499;46.484;13.832;2023-06-19T00:05:39;93175.81;;;16.09;80.53
12471;BME280;36499;46.484;13.832;2023-06-19T00:08:06;93167.75;;;15.94;81.60
12471;BME280;36499;46.484;13.832;2023-06-19T00:10:33;93164.47;;;16.04;81.10
12471;BME280;36499;46.484;13.832;2023-06-19T00:13:00;93156.38;;;16.10;80.44
12471;BME280;36499;46.484;13.832;2023-06-19T00:15:29;93160.38;;;16.13;81.00
12471;BME280;36499;46.484;13.832;2023-06-19T00:17:56;93152.72;;;16.11;80.61
12471;BME280;36499;46.484;13.832;2023-06-19T00:20:24;93154.47;;;16.06;80.77
12471;BME280;36499;46.484;13.832;2023-06-19T00:22:51;93161.25;;;16.02;81.28
12471;BME280;36499;46.484;13.832;2023-06-19T00:25:18;93161.91;;;16.09;80.86
12471;BME280;36499;46.484;13.832;2023-06-19T00:27:46;93156.56;;;16.04;80.04
12471;BME280;36499;46.484;13.832;2023-06-19T00:30:14;93160.22;;;16.03;80.13
12471;BME280;36499;46.484;13.832;2023-06-19T00:32:42;93168.13;;;16.03;80.09
12471;BME280;36499;46.484;13.832;2023-06-19T00:35:14;93169.59;;;15.94;80.38
12471;BME280;36499;46.484;13.832;2023-06-19T00:37:41;93166.59;;;15.85;81.11
12471;BME280;36499;46.484;13.832;2023-06-19T00:40:19;93176.47;;;15.78;80.07
12471;BME280;36499;46.484;13.832;2023-06-19T00:42:47;93170.50;;;15.66;80.95
12471;BME280;36499;46.484;13.832;2023-06-19T00:45:14;93169.94;;;15.64;81.88
12471;BME280;36499;46.484;13.832;2023-06-19T00:47:43;93163.16;;;15.68;82.54
12471;BME280;36499;46.484;13.832;2023-06-19T00:50:11;93166.38;;;15.70;81.79
12471;BME280;36499;46.484;13.832;2023-06-19T00:52:38;93165.34;;;15.71;81.81
12471;BME280;36499;46.484;13.832;2023-06-19T00:55:07;93171.94;;;15.73;81.81
12471;BME280;36499;46.484;13.832;2023-06-19T00:57:35;93166.69;;;15.73;81.37
12471;BME280;36499;46.484;13.832;2023-06-19T01:00:03;93168.50;;;15.73;82.81
12471;BME280;36499;46.484;13.832;2023-06-19T01:02:33;93165.47;;;15.81;82.28
12471;BME280;36499;46.484;13.832;2023-06-19T01:05:02;93159.97;;;15.82;81.67
12471;BME280;36499;46.484;13.832;2023-06-19T01:07:51;93156.78;;;15.80;81.37
12471;BME280;36499;46.484;13.832;2023-06-19T01:10:24;93161.19;;;15.75;81.31
12471;BME280;36499;46.484;13.832;2023-06-19T01:12:57;93151.13;;;15.72;81.53
12471;BME280;36499;46.484;13.832;2023-06-19T01:15:26;93153.72;;;15.67;81.79
12471;BME280;36499;46.484;13.832;2023-06-19T01:17:55;93151.31;;;15.65;82.04
12471;BME280;36499;46.484;13.832;2023-06-19T01:20:27;93152.13;;;15.66;81.36
12471;BME280;36499;46.484;13.832;2023-06-19T01:22:56;93149.19;;;15.62;81.80
12471;BME280;36499;46.484;13.832;2023-06-19T01:25:23;93143.13;;;15.62;82.87
12471;BME280;36499;46.484;13.832;2023-06-19T01:27:51;93142.31;;;15.61;81.05
12471;BME280;36499;46.484;13.832;2023-06-19T01:30:19;93143.84;;;15.57;81.59
12471;BME280;36499;46.484;13.832;2023-06-19T01:32:56;93139.88;;;15.55;81.38
12471;BME280;36499;46.484;13.832;2023-06-19T01:35:27;93130.53;;;15.47;81.93
12471;BME280;36499;46.484;13.832;2023-06-19T01:37:57;93138.66;;;15.46;82.47
12471;BME280;36499;46.484;13.832;2023-06-19T01:40:26;93140.47;;;15.45;82.74
12471;BME280;36499;46.484;13.832;2023-06-19T01:42:59;93140.16;;;15.42;82.57
12471;BME280;36499;46.484;13.832;2023-06-19T01:45:28;93138.03;;;15.38;82.66
12471;BME280;36499;46.484;13.832;2023-06-19T01:47:56;93139.22;;;15.31;82.08
12471;BME280;36499;46.484;13.832;2023-06-19T01:50:24;93135.66;;;15.20;83.41
12471;BME280;36499;46.484;13.832;2023-06-19T01:52:51;93134.63;;;15.21;83.44
12471;BME280;36499;46.484;13.832;2023-06-19T01:55:20;93135.38;;;15.22;83.97
12471;BME280;36499;46.484;13.832;2023-06-19T01:57:47;93137.78;;;15.23;84.06
12471;BME280;36499;46.484;13.832;2023-06-19T02:00:15;93134.13;;;15.24;84.41
12471;BME280;36499;46.484;13.832;2023-06-19T02:02:43;93135.66;;;15.20;83.69
12471;BME280;36499;46.484;13.832;2023-06-19T02:05:11;93136.19;;;15.22;83.96
12471;BME280;36499;46.484;13.832;2023-06-19T02:07:39;93140.59;;;15.17;83.96
12471;BME280;36499;46.484;13.832;2023-06-19T02:10:07;93140.88;;;15.04;84.73
12471;BME280;36499;46.484;13.832;2023-06-19T02:12:36;93132.22;;;15.03;84.95
12471;BME280;36499;46.484;13.832;2023-06-19T02:15:04;93129.91;;;15.07;86.24
12471;BME280;36499;46.484;13.832;2023-06-19T02:17:31;93127.53;;;15.05;85.10
12471;BME280;36499;46.484;13.832;2023-06-19T02:19:58;93135.41;;;15.05;84.54
12471;BME280;36499;46.484;13.832;2023-06-19T02:22:25;93138.03;;;15.05;85.20
12471;BME280;36499;46.484;13.832;2023-06-19T02:24:52;93126.97;;;15.03;85.13
12471;BME280;36499;46.484;13.832;2023-06-19T02:27:19;93129.91;;;15.07;85.39
12471;BME280;36499;46.484;13.832;2023-06-19T02:29:48;93144.41;;;15.09;85.72
12471;BME280;36499;46.484;13.832;2023-06-19T02:32:15;93139.69;;;15.11;86.57
12471;BME280;36499;46.484;13.832;2023-06-19T02:34:42;93139.47;;;15.13;86.20
12471;BME280;36499;46.484;13.832;2023-06-19T02:37:09;93145.09;;;15.05;84.89
12471;BME280;36499;46.484;13.832;2023-06-19T02:39:36;93142.66;;;14.98;84.38
12471;BME280;36499;46.484;13.832;2023-06-19T02:42:04;93146.19;;;14.92;84.87
12471;BME280;36499;46.484;13.832;2023-06-19T02:44:32;93142.56;;;14.93;84.70
12471;BME280;36499;46.484;13.832;2023-06-19T02:47:00;93151.13;;;14.88;84.97
12471;BME280;36499;46.484;13.832;2023-06-19T02:49:27;93148.44;;;14.83;85.22
12471;BME280;36499;46.484;13.832;2023-06-19T02:51:55;93149.69;;;14.81;85.67
12471;BME280;36499;46.484;13.832;2023-06-19T02:54:22;93153.03;;;14.76;85.61
12471;BME280;36499;46.484;13.832;2023-06-19T02:56:49;93155.66;;;14.76;85.84
12471;BME280;36499;46.484;13.832;2023-06-19T02:59:16;93160.66;;;14.78;86.16
12471;BME280;36499;46.484;13.832;2023-06-19T03:01:43;93158.03;;;14.78;86.47
12471;BME280;36499;46.484;13.832;2023-06-19T03:04:12;93166.94;;;14.77;85.94
12471;BME280;36499;46.484;13.832;2023-06-19T03:06:39;93176.41;;;14.78;86.31
12471;BME280;36499;46.484;13.832;2023-06-19T03:09:07;93175.38;;;14.79;86.89
12471;BME280;36499;46.484;13.832;2023-06-19T03:11:38;93177.22;;;14.78;86.03
12471;BME280;36499;46.484;13.832;2023-06-19T03:14:06;93176.88;;;14.75;85.82
12471;BME280;36499;46.484;13.832;2023-06-19T03:16:35;93179.41;;;14.70;85.00
12471;BME280;36499;46.484;13.832;2023-06-19T03:19:02;93181.72;;;14.66;85.96
12471;BME280;36499;46.484;13.832;2023-06-19T03:21:31;93187.28;;;14.70;86.10
12471;BME280;36499;46.484;13.832;2023-06-19T03:23:58;93189.44;;;14.73;86.78
12471;BME280;36499;46.484;13.832;2023-06-19T03:26:25;93183.50;;;14.77;87.02
12471;BME280;36499;46.484;13.832;2023-06-19T03:28:52;93182.94;;;14.75;86.82
12471;BME280;36499;46.484;13.832;2023-06-19T03:31:19;93190.56;;;14.77;86.95
12471;BME280;36499;46.484;13.832;2023-06-19T03:33:46;93186.59;;;14.74;87.18
12471;BME280;36499;46.484;13.832;2023-06-19T03:36:13;93187.94;;;14.77;87.00
12471;BME280;36499;46.484;13.832;2023-06-19T03:38:42;93199.50;;;14.76;86.66
12471;BME280;36499;46.484;13.832;2023-06-19T03:41:09;93197.09;;;14.74;86.34
12471;BME280;36499;46.484;13.832;2023-06-19T03:43:36;93193.13;;;14.72;86.58
12471;BME280;36499;46.484;13.832;2023-06-19T03:46:03;93195.75;;;14.72;86.93
12471;BME280;36499;46.484;13.832;2023-06-19T03:48:30;93193.66;;;14.74;87.19
12471;BME280;36499;46.484;13.832;2023-06-19T03:50:58;93193.44;;;14.75;87.03
12471;BME280;36499;46.484;13.832;2023-06-19T03:53:26;93188.19;;;14.75;87.15
12471;BME280;36499;46.484;13.832;2023-06-19T03:55:54;93193.75;;;14.79;87.65
12471;BME280;36499;46.484;13.832;2023-06-19T03:58:22;93194.31;;;14.81;87.82
12471;BME280;36499;46.484;13.832;2023-06-19T04:00:49;93197.41;;;14.78;87.06
12471;BME280;36499;46.484;13.832;2023-06-19T04:03:16;93194.31;;;14.81;87.36
12471;BME280;36499;46.484;13.832;2023-06-19T04:05:43;93200.47;;;14.86;87.84
12471;BME280;36499;46.484;13.832;2023-06-19T04:08:10;93195.16;;;14.98;88.42
12471;BME280;36499;46.484;13.832;2023-06-19T04:10:37;93189.44;;;15.01;88.10
12471;BME280;36499;46.484;13.832;2023-06-19T04:13:05;93184.28;;;15.06;87.56
12471;BME280;36499;46.484;13.832;2023-06-19T04:15:32;93190.06;;;15.08;87.75
12471;BME280;36499;46.484;13.832;2023-06-19T04:18:01;93192.78;;;15.13;87.66
12471;BME280;36499;46.484;13.832;2023-06-19T04:20:29;93189.47;;;15.18;87.86
12471;BME280;36499;46.484;13.832;2023-06-19T04:22:56;93192.94;;;15.23;88.81
12471;BME280;36499;46.484;13.832;2023-06-19T04:25:23;93189.44;;;15.34;87.75
12471;BME280;36499;46.484;13.832;2023-06-19T04:27:50;93199.47;;;15.37;87.66
12471;BME280;36499;46.484;13.832;2023-06-19T04:30:18;93191.69;;;15.43;88.11
12471;BME280;36499;46.484;13.832;2023-06-19T04:32:46;93186.84;;;15.51;88.07
12471;BME280;36499;46.484;13.832;2023-06-19T04:35:13;93192.50;;;15.60;88.15
12471;BME280;36499;46.484;13.832;2023-06-19T04:37:41;93193.16;;;15.67;88.15
12471;BME280;36499;46.484;13.832;2023-06-19T04:40:09;93190.66;;;15.77;88.42
12471;BME280;36499;46.484;13.832;2023-06-19T04:42:36;93188.22;;;15.92;88.86
12471;BME280;36499;46.484;13.832;2023-06-19T04:45:06;93197.44;;;16.11;88.24
12471;BME280;36499;46.484;13.832;2023-06-19T04:47:35;93185.59;;;16.30;86.92
12471;BME280;36499;46.484;13.832;2023-06-19T04:50:02;93180.59;;;16.56;85.95
12471;BME280;36499;46.484;13.832;2023-06-19T04:52:29;93182.91;;;16.69;85.35
12471;BME280;36499;46.484;13.832;2023-06-19T04:54:58;93179.38;;;16.85;84.13
12471;BME280;36499;46.484;13.832;2023-06-19T04:57:25;93166.16;;;17.07;83.46
12471;BME280;36499;46.484;13.832;2023-06-19T04:59:52;93176.63;;;17.28;82.64
12471;BME280;36499;46.484;13.832;2023-06-19T05:02:19;93179.59;;;17.37;81.41
12471;BME280;36499;46.484;13.832;2023-06-19T05:04:48;93187.13;;;17.55;80.89
12471;BME280;36499;46.484;13.832;2023-06-19T05:07:15;93180.94;;;17.71;80.17
12471;BME280;36499;46.484;13.832;2023-06-19T05:09:43;93174.69;;;17.83;79.67
12471;BME280;36499;46.484;13.832;2023-06-19T05:12:11;93177.84;;;17.80;78.71
12471;BME280;36499;46.484;13.832;2023-06-19T05:14:38;93178.63;;;17.85;78.17
12471;BME280;36499;46.484;13.832;2023-06-19T05:17:05;93178.97;;;17.94;77.87
12471;BME280;36499;46.484;13.832;2023-06-19T05:19:35;93175.56;;;18.03;77.68
12471;BME280;36499;46.484;13.832;2023-06-19T05:22:04;93176.84;;;17.91;78.53
12471;BME280;36499;46.484;13.832;2023-06-19T05:24:32;93173.22;;;18.02;77.67
12471;BME280;36499;46.484;13.832;2023-06-19T05:26:59;93169.78;;;18.01;78.04
12471;BME280;36499;46.484;13.832;2023-06-19T05:29:26;93168.22;;;18.05;78.03
12471;BME280;36499;46.484;13.832;2023-06-19T05:31:53;93166.94;;;18.13;77.48
12471;BME280;36499;46.484;13.832;2023-06-19T05:34:20;93173.34;;;18.27;77.33
12471;BME280;36499;46.484;13.832;2023-06-19T05:36:48;93180.53;;;18.37;77.18
12471;BME280;36499;46.484;13.832;2023-06-19T05:39:16;93184.47;;;18.39;76.58
12471;BME280;36499;46.484;13.832;2023-06-19T05:41:44;93171.03;;;18.46;76.36
12471;BME280;36499;46.484;13.832;2023-06-19T05:44:12;93175.84;;;18.54;76.02
12471;BME280;36499;46.484;13.832;2023-06-19T05:46:41;93177.97;;;18.57;76.80
12471;BME280;36499;46.484;13.832;2023-06-19T05:49:08;93173.81;;;18.76;76.25
12471;BME280;36499;46.484;13.832;2023-06-19T05:51:36;93182.28;;;18.88;75.84
12471;BME280;36499;46.484;13.832;2023-06-19T05:54:03;93174.41;;;18.98;75.14
12471;BME280;36499;46.484;13.832;2023-06-19T05:56:31;93175.19;;;18.99;74.64
12471;BME280;36499;46.484;13.832;2023-06-19T05:58:59;93179.72;;;19.08;73.61
12471;BME280;36499;46.484;13.832;2023-06-19T06:01:26;93173.13;;;19.21;74.28
12471;BME280;36499;46.484;13.832;2023-06-19T06:03:54;93166.50;;;19.39;73.61
12471;BME280;36499;46.484;13.832;2023-06-19T06:06:22;93167.34;;;19.64;72.89
12471;BME280;36499;46.484;13.832;2023-06-19T06:08:50;93153.28;;;19.79;72.85
12471;BME280;36499;46.484;13.832;2023-06-19T06:11:18;93149.59;;;19.85;72.67
12471;BME280;36499;46.484;13.832;2023-06-19T06:13:47;93153.81;;;19.96;72.45
12471;BME280;36499;46.484;13.832;2023-06-19T06:16:14;93150.56;;;20.15;72.36
12471;BME280;36499;46.484;13.832;2023-06-19T06:18:41;93154.53;;;20.17;71.72
12471;BME280;36499;46.484;13.832;2023-06-19T06:21:08;93148.41;;;20.37;71.96
12471;BME280;36499;46.484;13.832;2023-06-19T06:23:35;93146.78;;;20.46;70.80
12471;BME280;36499;46.484;13.832;2023-06-19T06:26:02;93141.75;;;20.49;70.37
12471;BME280;36499;46.484;13.832;2023-06-19T06:28:29;93150.44;;;20.60;69.62
12471;BME280;36499;46.484;13.832;2023-06-19T06:30:58;93145.91;;;20.66;69.63
12471;BME280;36499;46.484;13.832;2023-06-19T06:33:25;93144.81;;;20.77;69.69
12471;BME280;36499;46.484;13.832;2023-06-19T06:35:55;93143.59;;;20.98;69.02
12471;BME280;36499;46.484;13.832;2023-06-19T06:38:22;93144.72;;;20.92;68.95
12471;BME280;36499;46.484;13.832;2023-06-19T06:40:49;93139.00;;;21.19;69.08
12471;BME280;36499;46.484;13.832;2023-06-19T06:43:16;93142.06;;;21.36;68.99
12471;BME280;36499;46.484;13.832;2023-06-19T06:45:43;93141.97;;;21.46;68.65
12471;BME280;36499;46.484;13.832;2023-06-19T06:48:12;93149.25;;;21.64;67.62
12471;BME280;36499;46.484;13.832;2023-06-19T06:50:39;93140.41;;;21.74;66.35
12471;BME280;36499;46.484;13.832;2023-06-19T06:53:07;93139.84;;;21.77;65.18
12471;BME280;36499;46.484;13.832;2023-06-19T06:55:34;93141.91;;;21.85;65.09
12471;BME280;36499;46.484;13.832;2023-06-19T06:58:01;93144.13;;;22.07;65.53
12471;BME280;36499;46.484;13.832;2023-06-19T07:00:28;93146.09;;;22.20;66.01
12471;BME280;36499;46.484;13.832;2023-06-19T07:02:56;93145.75;;;22.50;64.61
12471;BME280;36499;46.484;13.832;2023-06-19T07:05:24;93136.97;;;22.49;63.24
12471;BME280;36499;46.484;13.832;2023-06-19T07:07:51;93151.06;;;22.50;62.51
12471;BME280;36499;46.484;13.832;2023-06-19T07:10:18;93148.84;;;22.57;62.72
12471;BME280;36499;46.484;13.832;2023-06-19T07:12:47;93146.59;;;22.69;62.14
12471;BME280;36499;46.484;13.832;2023-06-19T07:15:15;93148.06;;;22.80;61.38
12471;BME280;36499;46.484;13.832;2023-06-19T07:17:43;93148.63;;;22.77;61.70
12471;BME280;36499;46.484;13.832;2023-06-19T07:20:10;93152.25;;;22.86;62.10
12471;BME280;36499;46.484;13.832;2023-06-19T07:22:39;93141.91;;;23.04;61.27
12471;BME280;36499;46.484;13.832;2023-06-19T07:25:09;93143.34;;;23.15;62.08
12471;BME280;36499;46.484;13.832;2023-06-19T07:27:37;93138.97;;;23.24;61.28
12471;BME280;36499;46.484;13.832;2023-06-19T07:30:06;93141.53;;;23.29;60.13
12471;BME280;36499;46.484;13.832;2023-06-19T07:32:33;93138.00;;;23.33;59.58
12471;BME280;36499;46.484;13.832;2023-06-19T07:35:00;93139.75;;;23.43;59.53
12471;BME280;36499;46.484;13.832;2023-06-19T07:37:27;93135.53;;;23.56;59.26
12471;BME280;36499;46.484;13.832;2023-06-19T07:39:56;93130.16;;;23.61;59.06
12471;BME280;36499;46.484;13.832;2023-06-19T07:42:23;93135.94;;;23.81;58.84
12471;BME280;36499;46.484;13.832;2023-06-19T07:44:50;93131.56;;;23.72;58.42
12471;BME280;36499;46.484;13.832;2023-06-19T07:47:17;93133.09;;;23.92;59.05
12471;BME280;36499;46.484;13.832;2023-06-19T07:49:46;93115.31;;;23.87;58.29
12471;BME280;36499;46.484;13.832;2023-06-19T07:52:13;93129.72;;;23.86;57.26
12471;BME280;36499;46.484;13.832;2023-06-19T07:54:57;93131.88;;;24.30;57.88
12471;BME280;36499;46.484;13.832;2023-06-19T07:57:25;93126.94;;;24.37;57.00
12471;BME280;36499;46.484;13.832;2023-06-19T07:59:54;93127.03;;;24.73;56.98
12471;BME280;36499;46.484;13.832;2023-06-19T08:02:21;93124.94;;;24.70;55.61
12471;BME280;36499;46.484;13.832;2023-06-19T08:04:48;93122.00;;;24.71;55.93
12471;BME280;36499;46.484;13.832;2023-06-19T08:07:16;93122.69;;;24.91;54.96
12471;BME280;36499;46.484;13.832;2023-06-19T08:09:43;93121.41;;;24.88;54.71
12471;BME280;36499;46.484;13.832;2023-06-19T08:12:11;93124.41;;;25.09;54.95
12471;BME280;36499;46.484;13.832;2023-06-19T08:14:38;93119.19;;;25.04;54.14
12471;BME280;36499;46.484;13.832;2023-06-19T08:17:05;93113.47;;;25.10;55.01
12471;BME280;36499;46.484;13.832;2023-06-19T08:19:33;93115.00;;;25.25;54.42
12471;BME280;36499;46.484;13.832;2023-06-19T08:22:00;93118.03;;;25.32;54.40
12471;BME280;36499;46.484;13.832;2023-06-19T08:24:28;93104.06;;;25.35;53.61
12471;BME280;36499;46.484;13.832;2023-06-19T08:26:55;93105.66;;;25.36;53.36
12471;BME280;36499;46.484;13.832;2023-06-19T08:29:24;93115.81;;;25.34;53.48
12471;BME280;36499;46.484;13.832;2023-06-19T08:31:51;93107.69;;;25.53;52.28
12471;BME280;36499;46.484;13.832;2023-06-19T08:34:18;93110.09;;;25.85;52.57
12471;BME280;36499;46.484;13.832;2023-06-19T08:36:45;93106.03;;;26.18;52.29
12471;BME280;36499;46.484;13.832;2023-06-19T08:39:12;93100.47;;;26.15;51.61
12471;BME280;36499;46.484;13.832;2023-06-19T08:41:39;93098.13;;;26.13;51.73
12471;BME280;36499;46.484;13.832;2023-06-19T08:44:07;93101.41;;;25.79;52.15
12471;BME280;36499;46.484;13.832;2023-06-19T08:46:36;93104.78;;;25.63;52.42
12471;BME280;36499;46.484;13.832;2023-06-19T08:49:04;93095.75;;;25.81;53.11
12471;BME280;36499;46.484;13.832;2023-06-19T08:51:32;93103.25;;;26.01;53.15
12471;BME280;36499;46.484;13.832;2023-06-19T08:54:02;93098.38;;;26.03;51.61
12471;BME280;36499;46.484;13.832;2023-06-19T08:56:30;93098.22;;;26.31;51.35
12471;BME280;36499;46.484;13.832;2023-06-19T08:59:09;93105.88;;;26.54;51.59
12471;BME280;36499;46.484;13.832;2023-06-19T09:01:38;93097.38;;;26.61;49.78
12471;BME280;36499;46.484;13.832;2023-06-19T09:04:10;93097.16;;;26.40;49.65
12471;BME280;36499;46.484;13.832;2023-06-19T09:06:49;93087.19;;;26.80;51.67
12471;BME280;36499;46.484;13.832;2023-06-19T09:09:18;93087.41;;;26.92;47.73
12471;BME280;36499;46.484;13.832;2023-06-19T09:11:58;93084.25;;;26.99;47.38
12471;BME280;36499;46.484;13.832;2023-06-19T09:14:32;93079.69;;;27.08;47.57
12471;BME280;36499;46.484;13.832;2023-06-19T09:17:02;93076.38;;;26.94;48.12
12471;BME280;36499;46.484;13.832;2023-06-19T09:19:30;93081.13;;;27.23;49.05
12471;BME280;36499;46.484;13.832;2023-06-19T09:22:03;93081.91;;;27.32;46.03
12471;BME280;36499;46.484;13.832;2023-06-19T09:24:34;93077.16;;;27.37;46.43
12471;BME280;36499;46.484;13.832;2023-06-19T09:27:09;93076.56;;;27.23;47.22
12471;BME280;36499;46.484;13.832;2023-06-19T09:29:40;93072.13;;;27.10;46.52
12471;BME280;36499;46.484;13.832;2023-06-19T09:32:19;93076.25;;;27.16;45.85
12471;BME280;36499;46.484;13.832;2023-06-19T09:34:48;93075.44;;;27.41;44.73
12471;BME280;36499;46.484;13.832;2023-06-19T09:37:21;93069.16;;;27.54;42.84
12471;BME280;36499;46.484;13.832;2023-06-19T09:39:53;93079.06;;;27.45;44.92
12471;BME280;36499;46.484;13.832;2023-06-19T09:42:26;93076.38;;;27.62;46.09
12471;BME280;36499;46.484;13.832;2023-06-19T09:44:59;93069.16;;;27.54;44.34
12471;BME280;36499;46.484;13.832;2023-06-19T09:47:31;93061.28;;;27.58;42.20
12471;BME280;36499;46.484;13.832;2023-06-19T09:50:00;93069.72;;;27.86;44.24
12471;BME280;36499;46.484;13.832;2023-06-19T09:52:28;93051.66;;;28.12;44.13
12471;BME280;36499;46.484;13.832;2023-06-19T09:54:56;93059.41;;;28.05;42.40
12471;BME280;36499;46.484;13.832;2023-06-19T09:57:24;93065.81;;;28.30;43.78
12471;BME280;36499;46.484;13.832;2023-06-19T09:59:54;93061.47;;;28.46;43.11
12471;BME280;36499;46.484;13.832;2023-06-19T10:02:25;93060.41;;;28.68;43.51
12471;BME280;36499;46.484;13.832;2023-06-19T10:04:55;93059.06;;;29.03;44.02
12471;BME280;36499;46.484;13.832;2023-06-19T10:07:33;93058.78;;;29.25;42.57
12471;BME280;36499;46.484;13.832;2023-06-19T10:10:04;93055.69;;;29.35;40.47
12471;BME280;36499;46.484;13.832;2023-06-19T10:12:40;93049.13;;;29.45;41.43
12471;BME280;36499;46.484;13.832;2023-06-19T10:15:17;93046.41;;;29.86;40.32
12471;BME280;36499;46.484;13.832;2023-06-19T10:17:49;93044.94;;;29.89;37.75
12471;BME280;36499;46.484;13.832;2023-06-19T10:20:27;93034.19;;;29.89;39.79
12471;BME280;36499;46.484;13.832;2023-06-19T10:23:02;93036.94;;;29.80;39.54
12471;BME280;36499;46.484;13.832;2023-06-19T10:25:32;93043.81;;;30.02;37.40
12471;BME280;36499;46.484;13.832;2023-06-19T10:28:00;93039.59;;;30.13;37.33
12471;BME280;36499;46.484;13.832;2023-06-19T10:30:28;93044.66;;;30.27;35.79
12471;BME280;36499;46.484;13.832;2023-06-19T10:32:56;93041.19;;;30.38;35.73
12471;BME280;36499;46.484;13.832;2023-06-19T10:35:25;93043.63;;;30.19;35.07
12471;BME280;36499;46.484;13.832;2023-06-19T10:37:52;93050.47;;;30.41;39.93
12471;BME280;36499;46.484;13.832;2023-06-19T10:40:19;93048.03;;;30.84;40.42
12471;BME280;36499;46.484;13.832;2023-06-19T10:42:46;93049.94;;;31.08;41.68
12471;BME280;36499;46.484;13.832;2023-06-19T10:45:15;93052.19;;;31.34;41.62
12471;BME280;36499;46.484;13.832;2023-06-19T10:47:46;93047.59;;;31.34;40.05
12471;BME280;36499;46.484;13.832;2023-06-19T10:50:14;93046.41;;;31.60;39.85
12471;BME280;36499;46.484;13.832;2023-06-19T10:52:44;93053.47;;;31.64;41.71
12471;BME280;36499;46.484;13.832;2023-06-19T10:55:12;93047.84;;;31.29;40.54
12471;BME280;36499;46.484;13.832;2023-06-19T10:57:40;93053.53;;;31.00;41.31
12471;BME280;36499;46.484;13.832;2023-06-19T11:00:21;93052.31;;;30.49;41.91
12471;BME280;36499;46.484;13.832;2023-06-19T11:02:49;93048.81;;;30.24;42.15
12471;BME280;36499;46.484;13.832;2023-06-19T11:05:19;93045.28;;;29.99;43.25
12471;BME280;36499;46.484;13.832;2023-06-19T11:07:53;93053.59;;;29.74;43.27
12471;BME280;36499;46.484;13.832;2023-06-19T11:10:22;93057.84;;;29.42;43.67
12471;BME280;36499;46.484;13.832;2023-06-19T11:12:53;93055.63;;;29.23;44.46
12471;BME280;36499;46.484;13.832;2023-06-19T11:15:29;93063.81;;;29.06;43.51
12471;BME280;36499;46.484;13.832;2023-06-19T11:17:56;93063.75;;;28.94;44.48
12471;BME280;36499;46.484;13.832;2023-06-19T11:20:24;93067.66;;;28.76;45.07
12471;BME280;36499;46.484;13.832;2023-06-19T11:23:00;93064.44;;;28.53;46.24
12471;BME280;36499;46.484;13.832;2023-06-19T11:25:35;93065.84;;;28.50;46.11
12471;BME280;36499;46.484;13.832;2023-06-19T11:28:03;93070.28;;;28.46;45.83
12471;BME280;36499;46.484;13.832;2023-06-19T11:30:32;93075.38;;;28.39;45.51
12471;BME280;36499;46.484;13.832;2023-06-19T11:33:01;93078.56;;;28.33;45.69
12471;BME280;36499;46.484;13.832;2023-06-19T11:35:33;93074.78;;;28.34;46.55
12471;BME280;36499;46.484;13.832;2023-06-19T11:38:03;93074.78;;;28.34;45.53
12471;BME280;36499;46.484;13.832;2023-06-19T11:40:39;93078.41;;;28.38;47.07
12471;BME280;36499;46.484;13.832;2023-06-19T11:43:06;93071.13;;;28.38;46.12
12471;BME280;36499;46.484;13.832;2023-06-19T11:45:45;93071.66;;;28.23;47.50
12471;BME280;36499;46.484;13.832;2023-06-19T11:48:13;93078.88;;;28.31;47.07
12471;BME280;36499;46.484;13.832;2023-06-19T11:50:40;93071.81;;;28.27;46.92
12471;BME280;36499;46.484;13.832;2023-06-19T11:53:08;93067.22;;;28.27;46.49
12471;BME280;36499;46.484;13.832;2023-06-19T11:55:36;93066.50;;;28.01;48.65
12471;BME280;36499;46.484;13.832;2023-06-19T11:58:03;93061.66;;;27.94;48.02
12471;BME280;36499;46.484;13.832;2023-06-19T12:00:30;93067.66;;;27.83;49.14
12471;BME280;36499;46.484;13.832;2023-06-19T12:02:57;93067.97;;;27.90;49.14
12471;BME280;36499;46.484;13.832;2023-06-19T12:05:24;93058.81;;;27.91;49.77
12471;BME280;36499;46.484;13.832;2023-06-19T12:07:54;93062.47;;;27.86;48.71
12471;BME280;36499;46.484;13.832;2023-06-19T12:10:23;93067.22;;;27.81;48.87
12471;BME280;36499;46.484;13.832;2023-06-19T12:12:50;93057.72;;;27.92;50.23
12471;BME280;36499;46.484;13.832;2023-06-19T12:15:17;93068.06;;;28.19;51.57
12471;BME280;36499;46.484;13.832;2023-06-19T12:17:45;93065.03;;;28.29;49.51
12471;BME280;36499;46.484;13.832;2023-06-19T12:20:13;93056.81;;;28.34;49.41
12471;BME280;36499;46.484;13.832;2023-06-19T12:22:40;93063.00;;;28.55;50.67
12471;BME280;36499;46.484;13.832;2023-06-19T12:25:09;93062.16;;;28.93;51.59
12471;BME280;36499;46.484;13.832;2023-06-19T12:27:38;93063.53;;;29.20;47.90
12471;BME280;36499;46.484;13.832;2023-06-19T12:30:07;93048.13;;;29.49;48.28
12471;BME280;36499;46.484;13.832;2023-06-19T12:32:40;93044.16;;;29.88;47.62
12471;BME280;36499;46.484;13.832;2023-06-19T12:35:08;93048.34;;;30.22;47.60
12471;BME280;36499;46.484;13.832;2023-06-19T12:37:35;93038.28;;;30.68;47.68
12471;BME280;36499;46.484;13.832;2023-06-19T12:40:03;93045.31;;;30.97;45.81
12471;BME280;36499;46.484;13.832;2023-06-19T12:42:34;93041.22;;;31.27;43.74
12471;BME280;36499;46.484;13.832;2023-06-19T12:45:04;93033.88;;;31.39;44.56
12471;BME280;36499;46.484;13.832;2023-06-19T12:47:32;93030.22;;;31.60;45.01
12471;BME280;36499;46.484;13.832;2023-06-19T12:49:59;93028.56;;;31.55;42.42
12471;BME280;36499;46.484;13.832;2023-06-19T12:52:26;93022.84;;;31.45;41.41
12471;BME280;36499;46.484;13.832;2023-06-19T12:54:54;93028.78;;;31.78;43.23
12471;BME280;36499;46.484;13.832;2023-06-19T12:57:21;93021.06;;;31.92;42.59